Latest Weather Observations for Tewantin

IDQ60801

Issued at 6:32 am EST Wednesday 28 January 2015 (issued every 30 minutes, with the page automatically refreshed every 10 minutes)

About weather observations | Map of weather stations | Latest weather observations for QLD | Other Formats
Station Details ID: 040908 Name: TEWANTIN RSL PARK Lat: -26.39 Lon: 153.04 Height: 6.4 m
Data from the previous 72 hours. | See also: Recent months at Tewantin
Date/Time
EST
Temp
°C
App
Temp
°C
Dew
Point
Rel
Hum
%
Delta-T
°C
Wind Press
QNH
hPa
Press
MSL
hPa
Rain
since 9 am
mm
Dir
 
Spd
km/h
Gust
km/h
Spd
kts
Gust
kts
28/06:30am 21.8 23.2 20.3 91 1.0 S 13 22 7 12 1005.1 1005.1 3.0
28/06:00am 21.9 23.5 20.7 93 0.8 S 13 19 7 10 1004.7 1004.7 3.0
28/05:30am 22.0 23.5 21.2 95 0.5 S 15 20 8 11 1004.3 1004.3 3.0
28/05:00am 22.1 23.5 21.1 94 0.7 S 15 22 8 12 1004.3 1004.3 3.0
28/04:30am 22.4 24.5 21.7 96 0.5 S 13 20 7 11 1004.4 1004.4 3.0
28/04:00am 22.6 24.9 22.1 97 0.3 S 13 20 7 11 1004.3 1004.3 2.8
28/03:30am 22.5 25.2 22.2 98 0.2 S 11 15 6 8 1004.3 1004.3 2.8
28/03:00am 22.5 25.6 22.2 98 0.2 SSW 9 17 5 9 1004.3 1004.3 2.8
28/02:30am 22.6 25.5 22.4 99 0.1 S 11 19 6 10 1004.5 1004.5 2.8
28/02:00am 22.8 26.0 22.3 97 0.3 S 9 15 5 8 1005.0 1005.0 1.8
28/01:30am 23.2 26.1 21.8 92 0.9 SSW 9 13 5 7 1005.3 1005.3 1.0
28/01:00am 23.9 26.6 21.4 86 1.7 SSE 9 15 5 8 1005.7 1005.7 0.4
28/12:30am 25.2 27.2 20.7 76 2.9 SE 11 20 6 11 1005.9 1005.9 0.0
28/12:00am 25.6 27.1 20.6 74 3.3 SE 13 19 7 10 1006.0 1006.0 0.0
 
Date/Time
EST
Temp
°C
App
Temp
°C
Dew
Point
Rel
Hum
%
Delta-T
°C
Wind Press
QNH
hPa
Press
MSL
hPa
Rain
since 9 am
mm
Dir
 
Spd
km/h
Gust
km/h
Spd
kts
Gust
kts
27/11:30pm 25.7 26.9 20.0 71 3.7 ESE 13 22 7 12 1006.0 1006.0 0.0
27/11:00pm 25.9 27.4 20.5 72 3.5 SE 13 24 7 13 1006.2 1006.2 0.0
27/10:30pm 26.0 26.4 19.9 69 4.0 ESE 17 26 9 14 1006.3 1006.3 0.0
27/10:00pm 26.0 27.3 20.8 73 3.4 ESE 15 26 8 14 1006.4 1006.4 0.0
27/09:30pm 26.2 26.9 20.5 71 3.7 ESE 17 28 9 15 1006.4 1006.4 0.0
27/09:00pm 26.2 27.6 21.0 73 3.4 ESE 15 22 8 12 1006.4 1006.4 0.0
27/08:30pm 26.2 27.2 21.0 73 3.4 ESE 17 22 9 12 1006.3 1006.3 0.0
27/08:00pm 26.3 27.6 20.8 71 3.6 ESE 15 24 8 13 1006.2 1006.2 0.0
27/07:30pm 26.4 28.1 20.9 72 3.6 ESE 13 22 7 12 1005.7 1005.7 0.0
27/07:00pm 26.4 27.6 20.7 71 3.8 ESE 15 26 8 14 1005.3 1005.3 0.0
27/06:30pm 26.5 27.7 20.6 70 3.9 ESE 15 24 8 13 1005.3 1005.3 0.0
27/06:00pm 26.6 27.2 20.2 68 4.2 ESE 17 28 9 15 1005.0 1005.0 0.0
27/05:30pm 26.8 27.8 21.1 71 3.8 ESE 17 30 9 16 1004.5 1004.5 0.0
27/05:00pm 26.9 27.5 21.4 72 3.7 ESE 20 28 11 15 1004.5 1004.5 0.0
27/04:30pm 27.2 27.3 21.2 69 4.0 ESE 22 32 12 17 1004.2 1004.2 0.0
27/04:00pm 27.2 27.7 21.2 69 4.0 ESE 20 32 11 17 1004.5 1004.5 0.0
27/03:30pm 27.1 27.9 21.4 71 3.8 ESE 19 28 10 15 1004.6 1004.6 0.0
27/03:00pm 27.6 28.8 22.1 72 3.7 ESE 19 28 10 15 1004.7 1004.7 0.0
27/02:30pm 27.7 29.6 22.0 71 3.8 ESE 15 24 8 13 1005.2 1005.2 0.0
27/02:00pm 26.6 28.7 22.4 78 2.8 SE 15 24 8 13 1005.6 1005.6 0.0
27/01:30pm 27.2 27.7 21.2 69 4.0 ESE 20 32 11 17 1005.9 1005.9 0.0
27/01:00pm 27.9 28.3 21.0 66 4.6 ESE 20 30 11 16 1006.1 1006.1 0.0
27/12:30pm 27.9 29.0 21.9 70 4.0 SE 19 30 10 16 1006.3 1006.3 0.0
27/12:00pm 28.6 29.2 21.1 64 5.0 SE 19 32 10 17 1006.6 1006.6 0.0
27/11:30am 28.7 29.4 21.5 65 4.8 ESE 20 28 11 15 1007.0 1007.0 0.0
27/11:00am 29.0 30.0 21.0 62 5.3 ESE 17 24 9 13 1007.2 1007.2 0.0
27/10:30am 28.9 30.2 21.7 65 4.8 ESE 17 24 9 13 1007.6 1007.6 0.0
27/10:00am 28.5 29.4 20.8 63 5.1 ESE 17 28 9 15 1007.6 1007.6 0.0
27/09:30am 28.3 29.8 21.3 65 4.7 SE 15 22 8 12 1007.7 1007.7 0.0
27/09:00am 27.9 28.5 21.0 66 4.6 ESE 19 30 10 16 1007.4 1007.4 0.0
27/08:30am 27.9 28.6 21.2 67 4.5 E 19 32 10 17 1007.0 1007.0 0.0
27/08:00am 27.8 28.7 21.6 69 4.2 E 19 28 10 15 1006.9 1006.9 0.0
27/07:30am 27.4 28.7 21.7 71 3.8 ESE 17 24 9 13 1006.8 1006.8 0.0
27/07:00am 26.6 29.1 22.4 78 2.8 ESE 13 20 7 11 1006.8 1006.8 0.0
27/06:30am 26.5 29.2 22.1 77 3.0 E 11 20 6 11 1006.7 1006.7 0.0
27/06:00am 26.4 30.1 22.3 78 2.8 E 6 9 3 5 1006.7 1006.7 0.0
27/05:30am 25.9 29.1 22.4 81 2.4 E 9 11 5 6 1006.3 1006.3 0.0
27/05:00am 26.2 28.9 22.1 78 2.8 ESE 11 17 6 9 1006.4 1006.4 0.0
27/04:30am 26.1 29.4 22.6 81 2.4 ESE 9 17 5 9 1006.0 1006.0 0.0
27/04:00am 26.1 29.3 22.4 80 2.5 ESE 9 15 5 8 1006.0 1006.0 0.0
27/03:30am 26.2 28.9 22.1 78 2.7 ESE 11 17 6 9 1005.7 1005.7 0.0
27/03:00am 26.3 28.4 22.4 79 2.6 ESE 15 22 8 12 1005.5 1005.5 0.0
27/02:30am 26.5 30.0 22.8 80 2.5 ESE 9 15 5 8 1005.5 1005.5 0.0
27/02:00am 26.5 29.3 23.0 81 2.4 ESE 13 20 7 11 1005.5 1005.5 0.0
27/01:30am 26.5 29.2 22.8 80 2.5 ESE 13 24 7 13 1005.6 1005.6 0.0
27/01:00am 26.6 29.0 22.9 80 2.5 ESE 15 22 8 12 1005.9 1005.9 0.0
27/12:30am 26.7 29.6 22.5 78 2.8 SE 11 20 6 11 1006.5 1006.5 0.0
27/12:00am 26.6 29.2 22.7 79 2.6 SSE 13 22 7 12 1007.1 1007.1 0.0
 
Date/Time
EST
Temp
°C
App
Temp
°C
Dew
Point
Rel
Hum
%
Delta-T
°C
Wind Press
QNH
hPa
Press
MSL
hPa
Rain
since 9 am
mm
Dir
 
Spd
km/h
Gust
km/h
Spd
kts
Gust
kts
26/11:30pm 26.7 29.6 23.2 81 2.4 SE 13 20 7 11 1007.3 1007.3 0.0
26/11:00pm 26.9 30.0 23.6 82 2.3 SE 13 22 7 12 1007.6 1007.6 0.0
26/10:30pm 27.1 30.1 23.3 80 2.6 SE 13 22 7 12 1008.0 1008.0 0.0
26/10:00pm 27.2 30.5 23.9 82 2.3 SE 13 24 7 13 1008.4 1008.4 0.0
26/09:30pm 27.4 30.9 24.8 86 1.8 SE 15 26 8 14 1007.9 1007.9 0.0
26/09:00pm 27.5 31.4 24.9 86 1.8 SSE 13 22 7 12 1007.7 1007.7 0.0
26/08:30pm 27.6 31.8 25.4 88 1.5 SSE 13 24 7 13 1007.3 1007.3 0.0
26/08:00pm 27.5 32.4 25.9 91 1.1 SSE 11 20 6 11 1007.0 1007.0 0.0
26/07:30pm 27.7 32.4 26.1 91 1.1 ESE 13 20 7 11 1006.8 1006.8 0.0
26/07:00pm 27.8 32.9 26.2 91 1.1 SE 11 19 6 10 1007.0 1007.0 0.0
26/06:30pm 27.9 32.7 26.3 91 1.1 SE 13 20 7 11 1006.5 1006.5 0.0
26/06:00pm 28.0 32.8 26.2 90 1.3 ESE 13 20 7 11 1006.3 1006.3 0.0
26/05:30pm 28.0 31.9 26.0 89 1.4 ESE 17 26 9 14 1006.0 1006.0 0.0
26/05:00pm 28.5 32.7 25.9 86 1.8 ESE 15 24 8 13 1004.7 1004.7 0.0
26/04:30pm 28.8 32.9 25.8 84 2.1 SE 15 22 8 12 1005.2 1005.2 0.0
26/04:00pm 28.8 33.7 26.4 87 1.7 ESE 13 20 7 11 1004.4 1004.4 0.0
26/03:30pm 28.8 33.6 26.2 86 1.8 ESE 13 24 7 13 1004.4 1004.4 0.0
26/03:00pm 29.1 33.5 26.3 85 2.0 ESE 15 20 8 11 1005.1 1005.1 0.0
26/02:30pm 28.8 33.2 25.6 83 2.3 SE 13 20 7 11 1005.2 1005.2 0.0
26/02:00pm 29.2 33.3 25.2 79 2.8 SE 13 20 7 11 1005.1 1005.1 0.0
26/01:30pm 28.9 32.6 25.1 80 2.7 ESE 15 20 8 11 1004.8 1004.8 0.0
26/01:00pm 29.0 32.7 24.6 77 3.1 SE 13 20 7 11 1005.2 1005.2 0.0
26/12:30pm 29.6 32.3 24.2 73 3.8 ESE 17 24 9 13 1005.5 1005.5 0.0
26/12:00pm 30.3 33.4 24.2 70 4.3 ESE 15 20 8 11 1005.7 1005.7 0.0
26/11:30am 30.9 35.1 24.8 70 4.3 SE 11 19 6 10 1005.9 1005.9 0.0
26/11:00am 30.2 33.3 23.6 67 4.6 ESE 13 20 7 11 1006.3 1006.3 0.0
26/10:30am 30.2 34.3 24.6 72 3.9 ESE 11 17 6 9 1006.6 1006.6 0.0
26/10:00am 29.6 33.1 24.2 73 3.8 ESE 13 20 7 11 1006.6 1006.6 0.0
26/09:30am 29.8 33.8 25.1 76 3.3 ESE 13 15 7 8 1006.7 1006.7 0.0
26/09:00am 29.7 34.7 24.8 75 3.4 SE 7 15 4 8 1006.7 1006.7 0.0
26/08:30am 28.5 33.3 24.5 79 2.8 S 7 11 4 6 1006.7 1006.7 0.0
26/08:00am 28.1 33.0 25.3 85 2.0 S 9 13 5 7 1006.7 1006.7 0.0
26/07:30am 27.5 32.3 25.1 87 1.7 S 9 15 5 8 1006.7 1006.7 0.0
26/07:00am 27.4 33.0 25.8 91 1.1 SSW 7 11 4 6 1006.6 1006.6 0.0
26/06:30am 26.3 32.8 25.6 96 0.5 SSW 2 7 1 4 1006.3 1006.3 0.0
26/06:00am 25.4 32.0 25.2 99 0.1 CALM 0 0 0 0 1005.8 1005.8 0.0
26/05:30am 24.9 31.3 24.9 100 0.0 CALM 0 0 0 0 1005.5 1005.5 0.0
26/05:00am 24.7 29.7 24.5 99 0.1 NW 6 9 3 5 1004.8 1004.8 0.0
26/04:30am 24.7 29.7 24.5 99 0.1 NNW 6 9 3 5 1004.7 1004.7 0.0
26/04:00am 24.9 30.4 24.7 99 0.1 NW 4 9 2 5 1004.6 1004.6 0.0
26/03:30am 25.2 31.3 25.0 99 0.1 W 2 7 1 4 1004.7 1004.7 0.0
26/03:00am 25.7 31.3 25.5 99 0.1 WNW 6 9 3 5 1004.7 1004.7 0.0
26/02:30am 26.0 33.1 26.0 100 0.0 CALM 0 2 0 1 1004.7 1004.7 0.0
26/02:00am 26.2 33.4 26.2 100 0.0 CALM 0 0 0 0 1004.9 1004.9 0.0
26/01:30am 26.2 32.3 26.2 100 0.0 NNW 6 7 3 4 1005.1 1005.1 0.0
26/01:00am 26.4 32.6 26.4 100 0.0 N 6 7 3 4 1005.3 1005.3 0.0
26/12:30am 26.5 32.8 26.5 100 0.0 NNW 6 9 3 5 1005.7 1005.7 0.0
26/12:00am 26.8 33.3 26.8 100 0.0 WNW 6 9 3 5 1005.9 1005.9 0.0
 
Date/Time
EST
Temp
°C
App
Temp
°C
Dew
Point
Rel
Hum
%
Delta-T
°C
Wind Press
QNH
hPa
Press
MSL
hPa
Rain
since 9 am
mm
Dir
 
Spd
km/h
Gust
km/h
Spd
kts
Gust
kts
25/11:30pm 26.9 33.5 26.9 100 0.0 NNW 6 11 3 6 1006.2 1006.2 0.0
25/11:00pm 26.9 33.5 26.9 100 0.0 NNE 6 7 3 4 1005.8 1005.8 0.0
25/10:30pm 27.0 34.8 27.0 100 0.0 CALM 0 0 0 0 1005.7 1005.7 0.0
25/10:00pm 27.2 34.7 27.2 100 0.0 NNE 2 6 1 3 1005.8 1005.8 0.0
25/09:30pm 27.2 34.6 27.0 99 0.1 ENE 2 7 1 4 1005.5 1005.5 0.0
25/09:00pm 27.3 35.1 27.0 98 0.2 CALM 0 6 0 3 1005.5 1005.5 0.0
25/08:30pm 27.5 34.6 27.2 98 0.2 ENE 4 7 2 4 1005.0 1005.0 0.0
25/08:00pm 27.6 34.4 27.3 98 0.2 N 6 9 3 5 1005.1 1005.1 0.0
25/07:30pm 27.7 33.9 27.2 97 0.4 NNE 9 11 5 6 1004.7 1004.7 0.0
25/07:00pm 28.0 33.5 27.3 96 0.5 N 13 20 7 11 1004.7 1004.7 0.0
25/06:30pm 28.2 33.1 27.0 93 0.9 NNE 15 20 8 11 1004.4 1004.4 0.0
25/06:00pm 28.4 32.7 26.6 90 1.3 NNE 17 24 9 13 1003.7 1003.7 0.0
25/05:30pm 28.6 33.4 26.8 90 1.3 NE 15 20 8 11 1003.2 1003.2 0.0
25/05:00pm 28.6 33.1 26.4 88 1.6 NNE 15 24 8 13 1003.5 1003.5 0.0
25/04:30pm 28.8 32.9 25.8 84 2.1 NE 15 24 8 13 1002.5 1002.5 0.0
25/04:00pm 29.4 33.4 26.2 83 2.3 NNE 17 28 9 15 1002.6 1002.6 0.0
25/03:30pm 30.0 34.5 26.4 81 2.6 NNE 15 20 8 11 1002.9 1002.9 0.0
25/03:00pm 29.5 32.5 25.5 79 2.8 NNE 20 26 11 14 1002.9 1002.9 0.0
25/02:30pm 29.9 33.5 25.6 78 3.0 NE 17 26 9 14 1003.2 1003.2 0.0
25/02:00pm 29.7 33.1 25.2 77 3.2 NNE 17 26 9 14 1003.4 1003.4 0.0
25/01:30pm 29.6 33.3 25.1 77 3.2 NE 15 22 8 12 1003.6 1003.6 0.0
25/01:00pm 29.9 33.4 24.8 74 3.6 NE 15 20 8 11 1003.7 1003.7 0.0
25/12:30pm 29.9 33.6 25.2 76 3.3 NE 15 22 8 12 1004.0 1004.0 0.0
25/12:00pm 29.4 32.4 25.6 80 2.7 NNE 20 26 11 14 1004.5 1004.5 0.0
25/11:30am 30.3 33.7 24.7 72 3.9 NE 15 20 8 11 1004.8 1004.8 0.0
25/11:00am 30.1 34.0 24.9 73 3.7 NE 13 17 7 9 1005.2 1005.2 0.0
25/10:30am 29.9 33.0 23.6 69 4.3 NE 13 19 7 10 1005.6 1005.6 0.0
25/10:00am 30.7 35.4 23.9 67 4.7 NE 6 13 3 7 1006.0 1006.0 0.0
25/09:30am 30.1 34.7 23.8 69 4.4 NNE 6 9 3 5 1006.3 1006.3 0.0
25/09:00am 29.2 34.1 23.6 72 3.9 NW 4 11 2 6 1006.6 1006.6 0.4
25/08:30am 27.6 30.4 22.3 73 3.6 NNW 11 17 6 9 1006.7 1006.7 0.4
25/08:00am 27.2 30.5 22.6 76 3.1 NNW 9 13 5 7 1007.2 1007.2 0.4
25/07:30am 25.9 29.4 22.2 80 2.5 NNW 7 11 4 6 1007.3 1007.3 0.4
25/07:00am 24.7 28.2 22.2 86 1.7 NNW 7 11 4 6 1007.4 1007.4 0.4

Other Formats:

Comma delimited format used in spreadsheet applications
http://www.bom.gov.au/fwo/IDQ60801/IDQ60801.94570.axf

JavaScript Object Notation format (JSON) in row-major order
http://www.bom.gov.au/fwo/IDQ60801/IDQ60801.94570.json